Time;durP1;ratioP1;P1;durP2;ratioP2;P2;SDS_P1;SDS_P2;PMS_P1;PMS_P2;Temp;Humidity;BMP_temperature;BMP_pressure;BME280_temperature;BME280_humidity;BME280_pressure;Samples;Min_cycle;Max_cycle;Signal;HPM_P1;HPM_P2
2021/07/15 00:00:51;;;;;;;21.43;4.03;;;;;;;18.99;80.59;99765.44;125726;1093;26573;-64
2021/07/15 00:03:29;;;;;;;16.13;3.40;;;;;;;18.96;80.68;99752.38;125763;1093;22770;-63
2021/07/15 00:06:01;;;;;;;14.58;4.38;;;;;;;18.96;80.94;99754.45;125746;1093;24184;-61
2021/07/15 00:08:36;;;;;;;18.03;5.43;;;;;;;18.94;80.83;99754.23;125820;1092;22806;-63
2021/07/15 00:11:11;;;;;;;19.15;4.93;;;;;;;18.91;80.84;99744.77;125681;1093;23757;-63
2021/07/15 00:13:43;;;;;;;14.08;4.03;;;;;;;18.89;80.90;99749.48;125717;1093;22767;-62
2021/07/15 00:16:15;;;;;;;18.30;4.83;;;;;;;18.87;80.86;99744.35;125726;1093;22777;-62
2021/07/15 00:18:51;;;;;;;12.40;4.23;;;;;;;18.84;81.21;99748.29;125717;1093;25880;-62
2021/07/15 00:21:27;;;;;;;13.28;4.73;;;;;;;18.86;81.12;99742.84;125845;1093;22797;-62
2021/07/15 00:24:00;;;;;;;14.63;3.80;;;;;;;18.88;81.21;99742.28;125788;1093;22770;-60
2021/07/15 00:26:33;;;;;;;16.77;4.57;;;;;;;18.84;80.93;99734.15;125716;1093;26292;-64
2021/07/15 00:29:07;;;;;;;17.50;4.10;;;;;;;18.82;80.87;99716.20;125802;1093;24471;-64
2021/07/15 00:31:39;;;;;;;17.90;4.23;;;;;;;18.80;81.05;99721.65;125775;1093;22778;-62
2021/07/15 00:34:12;;;;;;;15.25;4.05;;;;;;;18.80;81.15;99713.16;125780;1093;24432;-61
2021/07/15 00:36:44;;;;;;;21.80;5.20;;;;;;;18.77;81.13;99726.33;125772;1093;25848;-62
2021/07/15 00:39:15;;;;;;;20.87;5.17;;;;;;;18.76;81.36;99722.00;125799;1093;22738;-61
2021/07/15 00:41:47;;;;;;;19.47;4.70;;;;;;;18.74;81.30;99724.61;125689;1093;22803;-62
2021/07/15 00:44:18;;;;;;;13.98;3.98;;;;;;;18.72;81.44;99724.40;125743;1093;22787;-62
2021/07/15 00:46:51;;;;;;;12.28;3.75;;;;;;;18.70;81.17;99732.67;125767;1093;25661;-61
2021/07/15 00:49:22;;;;;;;23.95;4.95;;;;;;;18.68;81.10;99740.17;125728;1093;26286;-63
2021/07/15 00:51:54;;;;;;;12.07;3.90;;;;;;;18.64;81.26;99748.23;125664;1093;22770;-62
2021/07/15 00:54:27;;;;;;;19.80;4.78;;;;;;;18.62;81.22;99756.50;125704;1093;25881;-59
2021/07/15 00:56:59;;;;;;;13.90;4.70;;;;;;;18.59;81.09;99747.04;125734;1093;22800;-62
2021/07/15 00:59:31;;;;;;;18.65;5.10;;;;;;;18.55;81.30;99738.90;125701;1093;29405;-63
2021/07/15 01:02:03;;;;;;;14.53;4.17;;;;;;;18.53;81.58;99743.57;125845;1093;22797;-64
2021/07/15 01:04:34;;;;;;;16.43;4.60;;;;;;;18.49;81.62;99745.97;125745;1093;23254;-61
2021/07/15 01:07:06;;;;;;;13.20;5.23;;;;;;;18.47;81.46;99742.93;125787;1093;22758;-64
2021/07/15 01:09:39;;;;;;;14.30;4.30;;;;;;;18.45;81.70;99746.31;125725;1093;22751;-61
2021/07/15 01:12:22;;;;;;;13.87;4.50;;;;;;;18.45;81.62;99745.55;125845;1093;22928;-59
2021/07/15 01:15:06;;;;;;;14.78;4.13;;;;;;;18.41;81.62;99745.08;125653;1093;24174;-62
2021/07/15 01:18:01;;;;;;;12.28;4.13;;;;;;;18.37;81.93;99747.48;125692;1093;25884;-62
2021/07/15 01:20:55;;;;;;;14.10;5.20;;;;;;;18.35;81.87;99747.27;125721;1092;22778;-62
2021/07/15 01:24:01;;;;;;;14.60;5.55;;;;;;;18.30;81.88;99750.95;126052;1093;22931;-63
2021/07/15 01:26:56;;;;;;;12.93;4.35;;;;;;;18.28;81.72;99742.27;125652;1093;22926;-60
2021/07/15 01:29:35;;;;;;;20.52;5.23;;;;;;;18.26;82.03;99747.70;125672;1092;22784;-61
2021/07/15 01:32:09;;;;;;;15.80;5.10;;;;;;;18.23;82.13;99746.71;125839;1093;22788;-64
2021/07/15 01:34:41;;;;;;;17.40;5.63;;;;;;;18.22;81.97;99750.09;125893;1093;22770;-61
2021/07/15 01:37:15;;;;;;;13.47;5.47;;;;;;;18.20;81.96;99759.12;125735;1093;25874;-61
2021/07/15 01:39:51;;;;;;;18.77;6.17;;;;;;;18.18;82.23;99756.08;125745;1092;26299;-62
2021/07/15 01:42:24;;;;;;;16.27;5.40;;;;;;;18.17;82.41;99750.95;125700;1093;22935;-61
2021/07/15 01:44:56;;;;;;;17.00;6.05;;;;;;;18.16;82.47;99741.73;125758;1092;22770;-62
2021/07/15 01:47:30;;;;;;;19.40;5.70;;;;;;;18.14;82.08;99738.70;126012;1092;22981;-61
2021/07/15 01:50:03;;;;;;;15.30;5.30;;;;;;;18.13;82.21;99737.16;125935;1092;22925;-61
2021/07/15 01:52:39;;;;;;;17.30;5.35;;;;;;;18.12;82.28;99746.95;125876;1091;22927;-62
2021/07/15 01:55:15;;;;;;;14.10;5.20;;;;;;;18.11;82.48;99756.72;125863;1093;22770;-61
2021/07/15 01:57:50;;;;;;;15.35;5.20;;;;;;;18.11;82.19;99759.54;125855;1093;23299;-63
2021/07/15 02:00:24;;;;;;;13.73;5.10;;;;;;;18.10;82.13;99760.86;125866;1093;26294;-62
2021/07/15 02:02:56;;;;;;;18.85;5.90;;;;;;;18.07;82.61;99752.69;125680;1093;22797;-61
2021/07/15 02:05:32;;;;;;;13.95;4.73;;;;;;;18.06;82.55;99754.78;125699;1093;22780;-60
2021/07/15 02:08:08;;;;;;;14.13;5.05;;;;;;;18.06;82.88;99754.78;125885;1093;22793;-64
2021/07/15 02:10:44;;;;;;;14.53;5.63;;;;;;;18.04;82.68;99757.38;125774;1093;22794;-60
2021/07/15 02:13:16;;;;;;;18.00;6.70;;;;;;;18.04;83.18;99763.03;125787;1093;23477;-60
2021/07/15 02:15:51;;;;;;;16.70;6.23;;;;;;;18.05;83.22;99756.06;125695;1092;22800;-62
2021/07/15 02:18:24;;;;;;;18.90;6.93;;;;;;;18.05;83.46;99764.53;125783;1092;27690;-62
2021/07/15 02:20:58;;;;;;;19.63;5.73;;;;;;;18.08;83.63;99765.52;125807;1093;25874;-62
2021/07/15 02:23:31;;;;;;;16.23;5.80;;;;;;;18.08;83.68;99766.29;125901;1093;22797;-60
2021/07/15 02:26:05;;;;;;;17.55;5.15;;;;;;;18.10;83.69;99769.33;125763;1092;25547;-63
2021/07/15 02:28:37;;;;;;;18.87;6.03;;;;;;;18.13;84.11;99768.23;125819;1091;22777;-63
2021/07/15 02:31:16;;;;;;;14.43;5.50;;;;;;;18.14;83.98;99764.12;125663;1093;22787;-61
2021/07/15 02:34:02;;;;;;;16.63;5.90;;;;;;;18.16;84.28;99763.57;125674;1093;22891;-61
2021/07/15 02:36:35;;;;;;;18.90;5.60;;;;;;;18.19;84.25;99760.41;125634;1092;26263;-63
2021/07/15 02:39:09;;;;;;;18.60;6.63;;;;;;;18.23;84.22;99768.58;125930;1093;27201;-62
2021/07/15 02:41:42;;;;;;;18.15;6.25;;;;;;;18.23;84.25;99769.31;125793;1093;22803;-62
2021/07/15 02:44:17;;;;;;;19.10;6.23;;;;;;;18.24;84.31;99765.20;125776;1093;22767;-61
2021/07/15 02:46:49;;;;;;;17.33;5.53;;;;;;;18.25;84.75;99766.71;125829;1093;22775;-60
2021/07/15 02:49:20;;;;;;;14.43;6.05;;;;;;;18.26;84.55;99765.42;125703;1093;22800;-62
2021/07/15 02:51:52;;;;;;;17.28;6.90;;;;;;;18.28;84.74;99764.87;125694;1092;27412;-61
2021/07/15 02:54:23;;;;;;;15.85;6.33;;;;;;;18.30;84.82;99776.39;125677;1093;22767;-63
2021/07/15 02:57:02;;;;;;;17.40;6.23;;;;;;;18.32;84.72;99777.37;125728;1092;22794;-61
2021/07/15 02:59:41;;;;;;;18.00;6.13;;;;;;;18.35;84.89;99787.57;125709;1093;22797;-61
2021/07/15 03:02:33;;;;;;;15.87;7.43;;;;;;;18.38;84.92;99797.03;125701;1092;22762;-61
2021/07/15 03:05:13;;;;;;;18.25;6.58;;;;;;;18.39;84.72;99796.48;125824;1093;22848;-64
2021/07/15 03:07:58;;;;;;;22.45;6.18;;;;;;;18.42;84.95;99798.23;125700;1093;27705;-61
2021/07/15 03:10:31;;;;;;;19.63;6.43;;;;;;;18.45;85.02;99799.24;125908;1092;22782;-62
2021/07/15 03:13:08;;;;;;;16.90;6.98;;;;;;;18.48;84.59;99801.73;125753;1092;22821;-60
2021/07/15 03:15:43;;;;;;;21.33;6.55;;;;;;;18.48;84.99;99801.73;125790;1093;22805;-60
2021/07/15 03:18:18;;;;;;;17.65;6.15;;;;;;;18.51;85.07;99806.31;125986;1093;22796;-62
2021/07/15 03:20:50;;;;;;;17.63;6.87;;;;;;;18.51;85.13;99803.48;125840;1093;22770;-60
2021/07/15 03:23:26;;;;;;;21.77;6.20;;;;;;;18.53;85.46;99803.70;125787;1093;26261;-64
2021/07/15 03:26:00;;;;;;;23.77;6.50;;;;;;;18.53;84.97;99792.39;125756;1093;22800;-63
2021/07/15 03:28:36;;;;;;;23.73;7.70;;;;;;;18.55;85.22;99791.84;125824;1092;22800;-61
2021/07/15 03:31:09;;;;;;;20.05;7.20;;;;;;;18.55;85.40;99781.30;125712;1093;22770;-59
2021/07/15 03:33:51;;;;;;;25.03;7.43;;;;;;;18.56;85.32;99779.22;125729;1093;22998;-60
2021/07/15 03:36:24;;;;;;;20.83;7.83;;;;;;;18.55;85.41;99775.65;125770;1093;22794;-62
2021/07/15 03:38:57;;;;;;;26.97;8.63;;;;;;;18.56;85.55;99779.98;125767;1093;22805;-61
2021/07/15 03:41:29;;;;;;;27.43;8.33;;;;;;;18.60;85.50;99778.91;125742;1092;22794;-61
2021/07/15 03:44:04;;;;;;;26.03;9.35;;;;;;;18.60;85.77;99790.98;125746;1093;22770;-62
2021/07/15 03:46:37;;;;;;;29.30;10.63;;;;;;;18.60;85.47;99796.63;125747;1093;22821;-62
2021/07/15 03:49:09;;;;;;;22.58;9.63;;;;;;;18.62;85.81;99801.73;125867;1093;24471;-62
2021/07/15 03:51:41;;;;;;;24.87;9.80;;;;;;;18.62;85.61;99799.67;125767;1092;22879;-62
2021/07/15 03:54:13;;;;;;;24.78;10.93;;;;;;;18.61;85.59;99791.72;125701;1093;25874;-59
2021/07/15 03:56:47;;;;;;;28.38;10.10;;;;;;;18.60;85.77;99790.98;125787;1093;27329;-63
2021/07/15 03:59:21;;;;;;;26.30;9.83;;;;;;;18.61;85.89;99798.14;125805;1093;22801;-60
2021/07/15 04:02:03;;;;;;;27.20;10.73;;;;;;;18.62;85.84;99804.56;125770;1093;25468;-62
2021/07/15 04:04:35;;;;;;;30.45;11.80;;;;;;;18.63;85.98;99806.84;125675;1093;22776;-62
2021/07/15 04:07:09;;;;;;;27.33;10.65;;;;;;;18.65;86.17;99814.77;125709;1092;22800;-62
2021/07/15 04:09:42;;;;;;;24.80;10.33;;;;;;;18.65;86.13;99807.05;125709;1093;22800;-61
2021/07/15 04:12:18;;;;;;;27.30;10.83;;;;;;;18.66;86.07;99808.59;125835;1093;25578;-63
2021/07/15 04:15:11;;;;;;;27.13;12.38;;;;;;;18.68;86.11;99808.80;125689;1093;22847;-63
2021/07/15 04:17:49;;;;;;;28.87;11.57;;;;;;;18.69;85.89;99813.13;125678;1093;22794;-63
2021/07/15 04:20:25;;;;;;;33.55;10.88;;;;;;;18.71;85.92;99809.75;125749;1092;24174;-62
2021/07/15 04:23:00;;;;;;;27.63;10.23;;;;;;;18.69;85.91;99807.48;125823;1093;22822;-63
2021/07/15 04:25:32;;;;;;;27.00;10.10;;;;;;;18.68;85.81;99820.11;125923;1093;22806;-62
2021/07/15 04:28:07;;;;;;;25.40;9.60;;;;;;;18.65;86.18;99809.88;125699;1093;22993;-63
2021/07/15 04:30:38;;;;;;;23.07;9.17;;;;;;;18.64;86.10;99814.03;125792;1093;27454;-61
2021/07/15 04:33:12;;;;;;;21.70;8.95;;;;;;;18.63;86.17;99815.31;125714;1093;26200;-62
2021/07/15 04:35:43;;;;;;;21.38;8.25;;;;;;;18.62;86.14;99816.64;125805;1093;22774;-61
2021/07/15 04:38:16;;;;;;;19.00;8.13;;;;;;;18.62;85.76;99818.70;125755;1093;22774;-61
2021/07/15 04:40:50;;;;;;;22.63;9.40;;;;;;;18.61;86.04;99817.93;125941;1093;22793;-62
2021/07/15 04:43:24;;;;;;;22.38;9.38;;;;;;;18.61;86.03;99819.98;125675;1093;25874;-61
2021/07/15 04:45:56;;;;;;;23.65;9.88;;;;;;;18.58;86.31;99812.61;125781;1093;22786;-60
2021/07/15 04:48:30;;;;;;;25.13;9.48;;;;;;;18.55;86.18;99814.45;125750;1093;22807;-63
2021/07/15 04:51:03;;;;;;;25.47;9.50;;;;;;;18.52;86.14;99813.47;125866;1092;22775;-62
2021/07/15 04:53:35;;;;;;;30.67;10.53;;;;;;;18.51;86.42;99823.27;125785;1093;26248;-62
2021/07/15 04:56:09;;;;;;;26.98;11.65;;;;;;;18.51;86.45;99819.68;125853;1093;22833;-63
2021/07/15 04:58:43;;;;;;;27.90;12.17;;;;;;;18.52;86.63;99821.19;125774;1093;22823;-61
2021/07/15 05:01:15;;;;;;;25.47;10.90;;;;;;;18.51;86.42;99819.68;125823;1093;22800;-62
2021/07/15 05:03:47;;;;;;;28.57;11.47;;;;;;;18.53;86.80;99823.48;126127;1087;22752;-63
2021/07/15 05:06:21;;;;;;;27.98;12.93;;;;;;;18.57;86.98;99823.16;125516;1094;22797;-62
2021/07/15 05:08:53;;;;;;;23.53;10.47;;;;;;;18.60;86.88;99821.31;125621;1093;22803;-63
2021/07/15 05:11:24;;;;;;;23.25;10.78;;;;;;;18.61;86.71;99815.11;125490;1093;22780;-63
2021/07/15 05:13:56;;;;;;;23.88;10.03;;;;;;;18.62;86.99;99810.98;129872;1092;22507;-63
2021/07/15 05:16:27;;;;;;;20.08;7.45;;;;;;;18.63;86.92;99809.66;129833;1092;22599;-63
2021/07/15 05:18:59;;;;;;;27.13;9.08;;;;;;;18.67;86.93;99812.16;128815;1093;22770;-63
2021/07/15 05:21:30;;;;;;;19.50;8.05;;;;;;;18.70;86.95;99803.36;125641;1093;22775;-62
2021/07/15 05:24:03;;;;;;;21.03;8.50;;;;;;;18.76;86.92;99809.66;125639;1093;27487;-63
2021/07/15 05:26:35;;;;;;;24.37;8.73;;;;;;;18.82;86.82;99798.98;125680;1093;22861;-62
2021/07/15 05:29:07;;;;;;;24.20;8.73;;;;;;;18.91;87.06;99811.91;125704;1093;22852;-62
2021/07/15 05:31:40;;;;;;;21.03;8.45;;;;;;;18.94;87.10;99800.26;125882;1093;22748;-64
2021/07/15 05:34:14;;;;;;;19.55;8.53;;;;;;;18.99;86.92;99804.28;125645;1093;26312;-61
2021/07/15 05:36:46;;;;;;;20.00;8.30;;;;;;;19.04;86.89;99823.95;125671;1093;27936;-61
2021/07/15 05:39:18;;;;;;;19.75;7.70;;;;;;;19.10;87.00;99835.91;125684;1093;27639;-62
2021/07/15 05:41:50;;;;;;;19.70;7.30;;;;;;;19.14;86.54;99838.42;125694;1093;24474;-62
2021/07/15 05:44:22;;;;;;;18.50;7.13;;;;;;;19.18;86.46;99828.26;125753;1093;23530;-64
2021/07/15 05:46:54;;;;;;;15.58;7.13;;;;;;;19.19;86.72;99849.60;125709;1093;22802;-61
2021/07/15 05:49:26;;;;;;;18.70;6.35;;;;;;;19.21;86.61;99846.98;126069;1093;25173;-62
2021/07/15 05:51:57;;;;;;;13.90;5.17;;;;;;;19.22;86.21;99853.41;125664;1092;27341;-63
2021/07/15 05:54:29;;;;;;;10.47;3.87;;;;;;;19.24;86.29;99842.30;125711;1092;22767;-62
2021/07/15 05:57:06;;;;;;;9.40;3.00;;;;;;;19.24;86.17;99836.64;125729;1093;22800;-62
2021/07/15 05:59:38;;;;;;;12.35;3.08;;;;;;;19.26;85.86;99834.02;125792;1093;22853;-62
2021/07/15 06:02:12;;;;;;;8.88;2.75;;;;;;;19.25;85.77;99838.92;125818;1092;24474;-61
2021/07/15 06:04:43;;;;;;;10.33;2.23;;;;;;;19.27;85.68;99838.36;125743;1092;22767;-61
2021/07/15 06:07:15;;;;;;;9.03;2.13;;;;;;;19.27;84.95;99833.47;125637;1094;22803;-63
2021/07/15 06:09:47;;;;;;;7.63;2.30;;;;;;;19.29;84.89;99835.74;125695;1093;22771;-62
2021/07/15 06:12:18;;;;;;;10.03;2.03;;;;;;;19.30;85.03;99840.84;125721;1093;22767;-64
2021/07/15 06:14:51;;;;;;;7.17;1.60;;;;;;;19.32;84.96;99837.48;125733;1093;27557;-61
2021/07/15 06:17:23;;;;;;;8.73;1.90;;;;;;;19.35;84.91;99839.23;125728;1093;22905;-63
2021/07/15 06:19:55;;;;;;;13.85;1.90;;;;;;;19.42;85.23;99844.22;125638;1092;27288;-62
2021/07/15 06:22:26;;;;;;;8.43;1.60;;;;;;;19.52;84.44;99839.61;125534;1093;22928;-63
2021/07/15 06:24:58;;;;;;;10.18;1.75;;;;;;;19.59;84.71;99835.34;125629;1093;22797;-61
2021/07/15 06:27:29;;;;;;;6.08;1.30;;;;;;;19.64;84.47;99826.70;125869;1093;22770;-61
2021/07/15 06:30:01;;;;;;;8.13;1.60;;;;;;;19.71;84.47;99828.86;125826;1093;27348;-62
2021/07/15 06:32:32;;;;;;;7.13;1.50;;;;;;;19.81;84.59;99827.05;125799;1093;22775;-62
2021/07/15 06:35:07;;;;;;;9.13;1.10;;;;;;;19.88;83.78;99828.44;125716;1093;23302;-61
2021/07/15 06:37:41;;;;;;;9.03;1.50;;;;;;;19.95;83.81;99819.22;125826;1093;22770;-62
2021/07/15 06:40:14;;;;;;;6.93;1.35;;;;;;;20.01;83.15;99823.44;125727;1093;22768;-63
2021/07/15 06:42:46;;;;;;;7.45;1.05;;;;;;;20.06;83.07;99824.61;125812;1093;22754;-61
2021/07/15 06:45:17;;;;;;;9.50;1.30;;;;;;;20.10;82.99;99827.86;125674;1093;23405;-62
2021/07/15 06:47:50;;;;;;;6.93;1.10;;;;;;;20.15;82.53;99839.03;125675;1093;22797;-62
2021/07/15 06:50:21;;;;;;;3.95;0.98;;;;;;;20.20;82.51;99836.64;125638;1093;22813;-63
2021/07/15 06:52:53;;;;;;;6.80;1.53;;;;;;;20.23;82.44;99838.38;125670;1093;22778;-61
2021/07/15 06:55:25;;;;;;;5.73;1.35;;;;;;;20.28;82.47;99840.31;125685;1093;25852;-62
2021/07/15 06:57:56;;;;;;;5.65;1.08;;;;;;;20.38;82.53;99844.16;125890;1093;22857;-61
2021/07/15 07:00:31;;;;;;;5.60;1.30;;;;;;;20.47;82.13;99849.31;125640;1093;22809;-63
2021/07/15 07:03:02;;;;;;;6.23;1.53;;;;;;;20.53;81.57;99853.52;125750;1093;25874;-62
2021/07/15 07:05:34;;;;;;;9.00;1.10;;;;;;;20.60;81.35;99846.38;125784;1093;25890;-62
2021/07/15 07:08:06;;;;;;;4.85;1.10;;;;;;;20.68;81.51;99844.34;125702;1093;22797;-62
2021/07/15 07:10:38;;;;;;;6.05;1.03;;;;;;;20.77;81.53;99838.89;125779;1093;26290;-62
2021/07/15 07:13:09;;;;;;;6.98;0.90;;;;;;;20.87;80.92;99847.66;125699;1093;22748;-62
2021/07/15 07:15:41;;;;;;;9.93;1.13;;;;;;;20.95;80.69;99856.97;125714;1093;22789;-63
2021/07/15 07:18:13;;;;;;;6.00;1.10;;;;;;;21.03;80.20;99857.78;125641;1092;22794;-62
2021/07/15 07:20:45;;;;;;;5.25;1.10;;;;;;;21.13;80.09;99855.16;125711;1093;22771;-62
2021/07/15 07:23:17;;;;;;;7.75;1.10;;;;;;;21.16;79.61;99860.50;125645;1093;24475;-62
2021/07/15 07:25:49;;;;;;;9.20;1.18;;;;;;;21.18;79.16;99859.93;125778;1093;22797;-62
2021/07/15 07:28:20;;;;;;;7.43;1.20;;;;;;;21.18;79.11;99862.77;125772;1093;25852;-62
2021/07/15 07:30:51;;;;;;;6.70;1.20;;;;;;;21.17;79.15;99852.75;125597;1093;23274;-61
2021/07/15 07:33:23;;;;;;;5.45;1.03;;;;;;;21.15;78.45;99850.45;125777;1093;22770;-62
2021/07/15 07:35:54;;;;;;;4.38;1.15;;;;;;;21.17;78.43;99844.23;125739;1092;28560;-62
2021/07/15 07:38:27;;;;;;;3.73;1.07;;;;;;;21.19;78.54;99845.17;125709;1093;25722;-63
2021/07/15 07:40:58;;;;;;;7.10;1.08;;;;;;;21.21;78.40;99839.69;125678;1093;22773;-63
2021/07/15 07:43:30;;;;;;;5.48;1.00;;;;;;;21.27;78.45;99845.21;125684;1093;22770;-62
2021/07/15 07:46:02;;;;;;;7.13;1.63;;;;;;;21.33;78.14;99842.95;125656;1093;22809;-62
2021/07/15 07:48:34;;;;;;;7.10;1.20;;;;;;;21.39;77.56;99843.54;125825;1093;24478;-62
2021/07/15 07:51:07;;;;;;;2.55;0.95;;;;;;;21.44;77.62;99851.88;125639;1093;22777;-62
2021/07/15 07:53:39;;;;;;;6.13;1.20;;;;;;;21.49;77.98;99853.80;125763;1092;22770;-63
2021/07/15 07:56:10;;;;;;;6.63;1.40;;;;;;;21.57;78.16;99857.41;125832;1093;28392;-62
2021/07/15 07:58:41;;;;;;;5.98;1.20;;;;;;;21.62;77.79;99861.40;125728;1093;22797;-62
2021/07/15 08:01:13;;;;;;;6.13;0.95;;;;;;;21.65;77.23;99849.66;125951;1093;22770;-62
2021/07/15 08:03:46;;;;;;;8.88;1.30;;;;;;;21.67;76.63;99849.84;125679;1093;25271;-61
2021/07/15 08:06:18;;;;;;;6.20;1.08;;;;;;;21.69;76.08;99847.20;125644;1092;22772;-64
2021/07/15 08:08:51;;;;;;;5.95;1.03;;;;;;;21.73;76.35;99856.11;125676;1093;22767;-62
2021/07/15 08:11:22;;;;;;;6.08;1.38;;;;;;;21.78;76.26;99857.25;125635;1093;22771;-62
2021/07/15 08:13:54;;;;;;;6.43;1.38;;;;;;;21.83;76.04;99866.95;125693;1093;22796;-61
2021/07/15 08:16:26;;;;;;;6.18;1.10;;;;;;;21.88;75.75;99871.68;125686;1093;24413;-62
2021/07/15 08:18:57;;;;;;;5.73;1.23;;;;;;;21.95;75.94;99870.94;125649;1093;23021;-61
2021/07/15 08:21:30;;;;;;;12.53;1.25;;;;;;;22.00;75.42;99867.91;125608;1093;22954;-62
2021/07/15 08:24:02;;;;;;;7.00;1.75;;;;;;;22.06;75.21;99870.55;125677;1093;22759;-62
2021/07/15 08:26:34;;;;;;;4.17;1.33;;;;;;;22.15;75.40;99864.31;125557;1093;22797;-65
2021/07/15 08:29:05;;;;;;;7.28;1.40;;;;;;;22.21;74.24;99865.64;125667;1092;22770;-62
2021/07/15 08:31:37;;;;;;;7.10;1.63;;;;;;;22.22;74.33;99872.83;125632;1093;24449;-62
2021/07/15 08:34:09;;;;;;;9.13;1.68;;;;;;;22.26;73.93;99889.53;125731;1093;22864;-62
2021/07/15 08:36:41;;;;;;;4.98;1.53;;;;;;;22.31;73.62;99882.88;125642;1093;22793;-62
2021/07/15 08:39:12;;;;;;;7.60;1.75;;;;;;;22.34;73.86;99888.20;125651;1091;25874;-62
2021/07/15 08:41:45;;;;;;;8.88;1.93;;;;;;;22.39;73.60;99889.31;125663;1093;27173;-61
2021/07/15 08:44:18;;;;;;;5.03;1.40;;;;;;;22.45;73.39;99895.59;125689;1092;22832;-62
2021/07/15 08:46:52;;;;;;;7.35;1.50;;;;;;;22.43;72.53;99895.38;125766;1093;22776;-62
2021/07/15 08:49:24;;;;;;;8.15;1.80;;;;;;;22.42;72.57;99894.64;125748;1093;22785;-61
2021/07/15 08:51:56;;;;;;;12.75;2.05;;;;;;;22.45;73.07;99895.59;125766;1093;23506;-62
2021/07/15 08:54:48;;;;;;;8.30;1.73;;;;;;;22.57;73.02;99898.80;125707;1093;22797;-62
2021/07/15 08:57:22;;;;;;;10.33;1.70;;;;;;;22.62;71.93;99898.63;125738;1093;22922;-64
2021/07/15 08:59:54;;;;;;;5.20;1.60;;;;;;;22.64;71.91;99907.34;125677;1093;27379;-62
2021/07/15 09:02:26;;;;;;;12.13;1.98;;;;;;;22.67;71.81;99914.75;125638;1091;22767;-61
2021/07/15 09:04:58;;;;;;;5.78;1.90;;;;;;;22.73;71.59;99926.69;125726;1093;28576;-62
2021/07/15 09:07:32;;;;;;;6.55;1.70;;;;;;;22.83;72.22;99924.77;126029;1093;22769;-62
2021/07/15 09:10:04;;;;;;;5.95;1.63;;;;;;;22.95;72.17;99925.88;125841;1092;22798;-62
2021/07/15 09:12:36;;;;;;;9.18;2.08;;;;;;;23.00;71.18;99927.02;125788;1092;24433;-63
2021/07/15 09:15:12;;;;;;;8.45;1.80;;;;;;;23.07;71.62;99929.83;125667;1093;26258;-62
2021/07/15 09:17:44;;;;;;;7.43;1.80;;;;;;;23.18;70.95;99948.59;125824;1093;22875;-62
2021/07/15 09:20:22;;;;;;;6.17;1.97;;;;;;;23.23;71.09;99942.72;125758;1093;22828;-62
2021/07/15 09:23:00;;;;;;;6.93;1.80;;;;;;;23.35;71.33;99948.77;125845;1093;22959;-61
2021/07/15 09:25:57;;;;;;;6.78;1.98;;;;;;;23.48;71.00;99956.31;125653;1093;22752;-64
2021/07/15 09:28:32;;;;;;;11.28;2.23;;;;;;;23.51;69.07;99940.91;125753;1093;22797;-63
2021/07/15 09:31:18;;;;;;;7.15;1.55;;;;;;;23.54;69.61;99937.68;125832;1092;22868;-62
2021/07/15 09:33:51;;;;;;;8.55;1.70;;;;;;;23.64;69.64;99949.21;125730;1093;22770;-63
2021/07/15 09:36:41;;;;;;;5.13;1.50;;;;;;;23.75;69.46;99954.48;126048;1093;26387;-62
2021/07/15 09:39:21;;;;;;;6.15;1.65;;;;;;;23.88;69.65;99952.12;125692;1092;24453;-62
2021/07/15 09:42:14;;;;;;;10.70;2.43;;;;;;;23.99;69.77;99950.92;125926;1093;22905;-62
2021/07/15 09:44:47;;;;;;;8.60;1.70;;;;;;;24.12;69.27;99955.63;125725;1093;22770;-62
2021/07/15 09:47:40;;;;;;;8.43;1.60;;;;;;;24.18;68.12;99950.44;125821;1093;22851;-62
2021/07/15 09:50:28;;;;;;;6.58;1.90;;;;;;;24.19;68.58;99951.97;125740;1093;25996;-62
2021/07/15 09:53:17;;;;;;;5.40;1.50;;;;;;;24.23;68.52;99952.32;125677;1093;22770;-62
2021/07/15 09:55:57;;;;;;;7.67;1.70;;;;;;;24.30;67.22;99952.26;125747;1092;22936;-62
2021/07/15 09:58:33;;;;;;;6.65;1.60;;;;;;;24.32;67.78;99943.11;125654;1093;22796;-62
2021/07/15 10:01:07;;;;;;;7.20;1.70;;;;;;;24.38;67.68;99949.34;125797;1093;25845;-63
2021/07/15 10:03:40;;;;;;;9.05;1.70;;;;;;;24.49;67.13;99946.02;125802;1093;22854;-61
2021/07/15 10:06:13;;;;;;;9.00;1.53;;;;;;;24.54;66.38;99942.19;125909;1093;22814;-62
2021/07/15 10:08:46;;;;;;;7.10;1.60;;;;;;;24.59;66.57;99935.47;125888;1093;22755;-62
2021/07/15 10:11:21;;;;;;;6.95;1.73;;;;;;;24.67;66.79;99939.77;125694;1093;22928;-65
2021/07/15 10:14:02;;;;;;;6.23;1.80;;;;;;;24.73;65.34;99936.66;125749;1093;23215;-62
2021/07/15 10:16:38;;;;;;;7.85;1.70;;;;;;;24.73;65.38;99956.64;125713;1093;22864;-63
2021/07/15 10:19:21;;;;;;;7.43;1.60;;;;;;;24.78;65.16;99942.18;125802;1093;22931;-63
2021/07/15 10:22:00;;;;;;;5.25;1.60;;;;;;;24.75;64.82;99954.75;125752;1092;27180;-62
2021/07/15 10:24:33;;;;;;;8.40;2.05;;;;;;;24.80;64.77;99950.91;125798;1092;22822;-62
2021/07/15 10:27:09;;;;;;;7.08;1.70;;;;;;;24.83;65.00;99958.30;125885;1093;27983;-61
2021/07/15 10:29:42;;;;;;;9.40;1.80;;;;;;;24.85;64.70;99954.88;125809;1093;22783;-62
2021/07/15 10:32:14;;;;;;;6.18;1.70;;;;;;;24.92;64.91;99964.69;125880;1093;26363;-62
2021/07/15 10:34:51;;;;;;;7.85;1.78;;;;;;;24.91;64.50;99961.09;126038;1092;24473;-62
2021/07/15 10:37:24;;;;;;;10.43;1.98;;;;;;;24.91;64.11;99966.80;126126;1092;22797;-61
2021/07/15 10:39:56;;;;;;;7.03;1.90;;;;;;;24.96;64.67;99973.59;125750;1093;22770;-63
2021/07/15 10:42:28;;;;;;;7.65;2.10;;;;;;;25.00;63.85;99971.84;125998;1092;23305;-63
2021/07/15 10:45:00;;;;;;;9.73;1.67;;;;;;;25.04;63.83;99982.86;125642;1093;26894;-63
2021/07/15 10:47:31;;;;;;;6.25;1.90;;;;;;;25.06;64.27;99991.60;126007;1091;22778;-62
2021/07/15 10:50:04;;;;;;;6.25;1.90;;;;;;;25.13;64.17;99990.75;125723;1093;22770;-62
2021/07/15 10:52:38;;;;;;;7.95;2.25;;;;;;;25.18;64.14;99987.64;125975;1093;22869;-63
2021/07/15 10:55:11;;;;;;;17.73;2.40;;;;;;;25.23;64.17;99985.88;125720;1092;22725;-62
2021/07/15 10:57:43;;;;;;;11.00;2.78;;;;;;;25.30;64.21;99990.77;125855;1093;27208;-63
2021/07/15 11:00:30;;;;;;;8.37;2.10;;;;;;;25.28;63.55;99991.36;125727;1093;22770;-64
2021/07/15 11:03:17;;;;;;;6.83;1.98;;;;;;;25.31;62.95;99992.27;125830;1093;28975;-69
2021/07/15 11:05:51;;;;;;;6.45;2.08;;;;;;;25.38;63.65;99991.44;125852;1093;22826;-71
2021/07/15 11:09:00;;;;;;;9.10;1.78;;;;;;;25.45;63.02;99976.34;125838;1093;22796;-64
2021/07/15 11:11:41;;;;;;;7.57;2.37;;;;;;;25.55;62.59;99982.89;125764;1093;22848;-62
2021/07/15 11:14:38;;;;;;;6.68;1.98;;;;;;;25.53;62.29;99977.74;126900;1093;22819;-62
2021/07/15 11:17:33;;;;;;;6.75;1.83;;;;;;;25.57;62.58;99980.93;129877;1093;22499;-63
2021/07/15 11:20:10;;;;;;;7.78;1.93;;;;;;;25.53;62.31;99977.74;125203;1097;22809;-63
2021/07/15 11:22:54;;;;;;;6.60;1.85;;;;;;;25.51;62.68;99980.44;125824;1095;22873;-62
2021/07/15 11:25:42;;;;;;;9.15;2.20;;;;;;;25.50;62.41;99981.03;125255;1097;22895;-62
2021/07/15 11:28:25;;;;;;;8.80;2.00;;;;;;;25.52;62.45;99970.52;125498;1097;26305;-63
2021/07/15 11:30:59;;;;;;;7.08;2.00;;;;;;;25.60;62.76;99962.61;125164;1096;27190;-64
2021/07/15 11:33:38;;;;;;;6.67;1.70;;;;;;;25.68;62.38;99961.77;125727;1096;22947;-62
2021/07/15 11:36:27;;;;;;;8.80;2.05;;;;;;;25.73;61.70;99964.35;125345;1097;26280;-63
2021/07/15 11:39:00;;;;;;;11.05;1.65;;;;;;;25.75;61.62;99969.47;125310;1096;26582;-64
2021/07/15 11:41:51;;;;;;;7.23;1.90;;;;;;;25.68;61.06;99961.77;125176;1097;28909;-64
2021/07/15 11:44:44;;;;;;;8.90;1.70;;;;;;;25.66;61.60;99957.38;125307;1097;22963;-62
2021/07/15 11:47:50;;;;;;;7.55;1.83;;;;;;;25.68;61.72;99946.11;125167;1096;22809;-63
2021/07/15 11:50:38;;;;;;;7.88;1.85;;;;;;;25.73;61.92;99949.30;125214;1097;22786;-62
2021/07/15 11:53:21;;;;;;;8.83;2.08;;;;;;;25.72;61.63;99948.53;125303;1097;22867;-63
2021/07/15 11:55:54;;;;;;;8.05;2.00;;;;;;;25.61;60.97;99941.27;125259;1096;22864;-63